Bellview, Louisiana
Current Conditions -  °F | °C
As of 5:53 AM on Wednesday 26 Nov 2014 (Local Time) from KMLU Reporting Station
Clear Clear  
Wind Chill: 36°   Ceiling: Unl
Heat Index: 36°   Visibility: 10mi
Dew Point: 32°   Wind: 3mph
Humidity: 86%   Direction: 190°S
Pressure: 30.16"   Gusts: NA
Location:  32.1631°N, 92.1971°W
Report Text: KMLU 261153Z 19003KT 10SM CLR 02/00 A3016 RMK AO2 SLP214 T00220000 10022 20006 56008
Loading
Personal Weather Stations






























Interactive Weather Map New forecast layout! Learn more

10-Day Weather Forecast

Advertisements
Track Severe Weather on mobile